Sligo Airport - TAF
(Terminal Area Forecast)

Issued at 12:36 UTC on Wed. 20-Sep-17

--- METARS(SA) ---

METAR EISG(SLIGO) 201200Z 36007KT 9999 OVC028 13/10 Q1010 =

--- TAFS() ---

TAF EISG(SLIGO) 201100Z 2012/2021 33010KT 9999 FEW010 BKN020 PROB30

TEMPO 2012/2015 5000 -RA BKN012 =

--- SIGMETS(WS) ---

IE - No VALID SIGMETS/Warnings FOR THIS AREA

--- SIGMETS Volcanic(WV) ---

IE - No VALID SIGMETS/Warnings FOR THIS AREA

--- SIGMETS(WS) ---

UK - No VALID SIGMETS/Warnings FOR THIS AREA

Sligo Airport - METARs

Latest METARs for Sligo and Donegal Airports - updated every 30 mins